createdAt,value
2023-07-29T00:02:34.963Z,84.00
2023-07-29T00:07:40.937Z,84.10
2023-07-29T00:12:44.507Z,84.10
2023-07-29T00:17:48.098Z,84.60
2023-07-29T00:22:54.973Z,84.10
2023-07-29T00:28:01.417Z,84.20
2023-07-29T00:33:05.152Z,84.80
2023-07-29T00:38:10.265Z,83.60
2023-07-29T00:43:14.005Z,84.10
2023-07-29T00:48:18.087Z,83.90
2023-07-29T00:53:23.160Z,83.90
2023-07-29T00:58:27.571Z,84.00
2023-07-29T01:03:31.239Z,83.70
2023-07-29T01:08:47.698Z,84.00
2023-07-29T01:14:04.525Z,83.80
2023-07-29T01:19:09.354Z,84.10
2023-07-29T01:24:14.907Z,83.50
2023-07-29T01:29:18.533Z,83.90
2023-07-29T01:34:31.084Z,83.90
2023-07-29T01:39:39.494Z,83.80
2023-07-29T01:44:43.610Z,83.90
2023-07-29T01:49:47.204Z,84.00
2023-07-29T01:54:53.390Z,84.20
2023-07-29T01:59:57.164Z,84.20
2023-07-29T02:05:00.845Z,84.00
2023-07-29T02:10:07.096Z,84.00
2023-07-29T02:15:11.895Z,84.10
2023-07-29T02:20:16.903Z,83.80
2023-07-29T02:25:22.696Z,84.10
2023-07-29T02:30:28.808Z,84.30
2023-07-29T02:35:32.900Z,84.50
2023-07-29T02:40:37.839Z,84.20
2023-07-29T02:45:41.468Z,84.00
2023-07-29T02:50:45.640Z,83.80
2023-07-29T02:55:50.801Z,83.80
2023-07-29T03:00:54.567Z,84.00
2023-07-29T03:06:02.600Z,84.00
2023-07-29T03:11:11.748Z,84.00
2023-07-29T03:16:18.924Z,84.00
2023-07-29T03:21:28.434Z,83.90
2023-07-29T03:26:33.531Z,83.70
2023-07-29T03:31:37.100Z,83.60
2023-07-29T03:36:40.634Z,83.50
2023-07-29T03:41:45.657Z,83.90
2023-07-29T03:46:49.288Z,84.00
2023-07-29T03:51:52.887Z,83.90
2023-07-29T03:56:57.912Z,83.70
2023-07-29T04:02:01.570Z,83.60
2023-07-29T04:07:38.834Z,83.50
2023-07-29T04:12:43.897Z,83.40
2023-07-29T04:17:47.638Z,83.40
2023-07-29T04:22:51.322Z,83.50
2023-07-29T04:27:58.605Z,83.40
2023-07-29T04:33:02.351Z,83.30
2023-07-29T04:38:05.890Z,83.30
2023-07-29T04:43:10.837Z,83.30
2023-07-29T04:48:14.510Z,83.20
2023-07-29T04:53:18.173Z,83.20
2023-07-29T04:58:23.431Z,83.30
2023-07-29T05:03:27.219Z,83.30
2023-07-29T05:08:31.514Z,83.10
2023-07-29T05:13:36.608Z,82.80
2023-07-29T05:18:40.711Z,82.80
2023-07-29T05:23:44.407Z,82.60
2023-07-29T05:28:49.293Z,82.40
2023-07-29T05:33:52.908Z,82.30
2023-07-29T05:38:56.640Z,82.70
2023-07-29T05:44:01.605Z,82.70
2023-07-29T05:49:05.212Z,82.60
2023-07-29T05:54:11.057Z,82.70
2023-07-29T05:59:16.333Z,82.60
2023-07-29T06:09:38.131Z,82.70
2023-07-29T06:14:43.267Z,82.60
2023-07-29T06:19:46.979Z,82.30
2023-07-29T06:24:50.656Z,82.70
2023-07-29T06:29:55.606Z,82.80
2023-07-29T06:35:00.131Z,82.70
2023-07-29T06:40:04.245Z,82.50
2023-07-29T06:45:11.301Z,82.90
2023-07-29T06:50:14.838Z,83.10
2023-07-29T06:55:18.508Z,82.80
2023-07-29T07:00:23.464Z,82.80
2023-07-29T07:05:27.211Z,82.40
2023-07-29T07:10:31.658Z,82.90
2023-07-29T07:15:36.751Z,82.70
2023-07-29T07:20:40.263Z,81.90
2023-07-29T07:25:44.483Z,82.00
2023-07-29T07:30:49.609Z,82.20
2023-07-29T07:35:53.401Z,82.70
2023-07-29T07:40:58.139Z,81.80
2023-07-29T07:46:04.354Z,78.60
2023-07-29T07:51:14.214Z,75.60
2023-07-29T07:56:17.807Z,74.70
2023-07-29T08:01:22.753Z,74.20
2023-07-29T08:06:26.264Z,72.30
2023-07-29T08:11:32.124Z,70.50
2023-07-29T08:16:37.223Z,72.10
2023-07-29T08:21:40.988Z,71.10
2023-07-29T08:26:44.560Z,71.00
2023-07-29T08:31:53.574Z,71.00
2023-07-29T08:36:59.118Z,72.30
2023-07-29T08:42:07.107Z,71.70
2023-07-29T08:47:12.349Z,73.10
2023-07-29T08:52:17.245Z,74.60
2023-07-29T08:57:23.071Z,74.20
2023-07-29T09:02:28.318Z,72.40
2023-07-29T09:07:32.788Z,72.10
2023-07-29T09:12:37.514Z,71.80
2023-07-29T09:17:43.652Z,72.40
2023-07-29T09:22:47.237Z,71.80
2023-07-29T09:27:50.816Z,71.90
2023-07-29T09:32:58.812Z,70.40
2023-07-29T09:38:02.572Z,70.00
2023-07-29T09:43:08.343Z,69.80
2023-07-29T09:48:13.809Z,69.90
2023-07-29T09:53:17.910Z,69.60
2023-07-29T09:58:30.261Z,69.50
2023-07-29T10:03:36.603Z,69.50
2023-07-29T10:08:41.987Z,69.80
2023-07-29T10:14:00.280Z,69.90
2023-07-29T10:19:24.617Z,70.50
2023-07-29T10:24:32.842Z,71.10
2023-07-29T10:29:41.682Z,71.50
2023-07-29T10:34:46.995Z,72.10
2023-07-29T10:39:57.697Z,71.50
2023-07-29T10:45:01.258Z,72.60
2023-07-29T10:50:21.414Z,73.00
2023-07-29T10:55:35.881Z,73.80
2023-07-29T11:00:39.370Z,71.20
2023-07-29T11:05:51.613Z,70.20
2023-07-29T11:11:07.605Z,69.60
2023-07-29T11:16:18.651Z,68.90
2023-07-29T11:21:24.675Z,69.30
2023-07-29T11:26:29.426Z,69.70
2023-07-29T11:31:42.281Z,70.00
2023-07-29T11:36:48.617Z,70.20
2023-07-29T11:41:52.092Z,70.60
2023-07-29T11:46:56.711Z,70.90
2023-07-29T11:52:01.990Z,70.30
2023-07-29T11:57:08.454Z,69.10
2023-07-29T12:02:19.865Z,68.90
2023-07-29T12:07:25.021Z,69.10
2023-07-29T12:12:28.512Z,68.90
2023-07-29T12:17:32.044Z,69.30
2023-07-29T12:22:37.030Z,69.60
2023-07-29T12:27:40.482Z,69.60
2023-07-29T12:32:49.821Z,69.50
2023-07-29T12:38:02.451Z,69.60
2023-07-29T12:43:05.947Z,70.90
2023-07-29T12:48:10.086Z,71.80
2023-07-29T12:53:15.097Z,72.40
2023-07-29T12:58:18.501Z,72.80
2023-07-29T13:03:22.768Z,73.00
2023-07-29T13:08:27.781Z,73.60
2023-07-29T13:13:31.291Z,73.70
2023-07-29T13:18:35.266Z,73.90
2023-07-29T13:23:40.313Z,74.00
2023-07-29T13:28:44.960Z,74.00
2023-07-29T13:33:48.441Z,73.90
2023-07-29T13:38:53.280Z,74.00
2023-07-29T13:43:56.706Z,74.30
2023-07-29T13:49:00.177Z,73.90
2023-07-29T13:54:05.140Z,73.70
2023-07-29T13:59:08.714Z,73.50
2023-07-29T14:04:12.222Z,73.40
2023-07-29T14:09:17.137Z,73.00
2023-07-29T14:14:22.499Z,72.80
2023-07-29T14:19:26.407Z,72.70
2023-07-29T14:24:32.462Z,72.40
2023-07-29T14:29:36.254Z,72.20
2023-07-29T14:34:39.702Z,72.20
2023-07-29T14:39:44.578Z,72.00
2023-07-29T14:44:48.012Z,71.70
2023-07-29T14:49:51.519Z,71.00
2023-07-29T14:54:56.393Z,71.10
2023-07-29T14:59:59.787Z,72.00
2023-07-29T15:05:03.549Z,71.30
2023-07-29T15:10:10.181Z,71.10
2023-07-29T15:15:14.488Z,70.90
2023-07-29T15:20:17.891Z,71.10
2023-07-29T15:25:22.659Z,70.90
2023-07-29T15:30:26.181Z,70.90
2023-07-29T15:35:29.631Z,70.90
2023-07-29T15:40:35.312Z,71.10
2023-07-29T15:46:51.708Z,71.20
2023-07-29T15:51:56.995Z,71.50
2023-07-29T15:57:03.037Z,71.50
2023-07-29T16:02:09.907Z,71.40
2023-07-29T16:07:14.133Z,71.10
2023-07-29T16:12:19.609Z,71.00
2023-07-29T16:17:23.910Z,70.70
2023-07-29T16:22:27.619Z,71.40
2023-07-29T16:27:34.070Z,71.80
2023-07-29T16:32:37.721Z,71.20
2023-07-29T16:37:41.223Z,70.60
2023-07-29T16:42:46.030Z,70.60
2023-07-29T16:47:50.085Z,70.20
2023-07-29T16:52:54.827Z,70.50
2023-07-29T16:58:00.367Z,70.20
2023-07-29T17:03:04.088Z,69.90
2023-07-29T17:08:07.867Z,70.00
2023-07-29T17:13:12.761Z,70.00
2023-07-29T17:18:29.092Z,70.80
2023-07-29T17:23:32.876Z,70.60
2023-07-29T17:28:37.760Z,70.10
2023-07-29T17:33:43.035Z,69.90
2023-07-29T17:40:12.723Z,70.20
2023-07-29T17:51:51.324Z,71.70
2023-07-29T17:56:55.139Z,71.80
2023-07-29T18:02:18.344Z,71.80
2023-07-29T18:07:22.382Z,71.60
2023-07-29T18:12:26.090Z,71.30
2023-07-29T18:17:35.188Z,71.20
2023-07-29T18:22:38.835Z,71.00
2023-07-29T18:28:30.618Z,70.70
2023-07-29T18:33:37.776Z,70.60
2023-07-29T18:44:47.974Z,69.50
2023-07-29T18:49:53.754Z,69.90
2023-07-29T18:54:59.038Z,70.30
2023-07-29T19:00:05.484Z,70.70
2023-07-29T19:06:08.800Z,70.70
2023-07-29T19:11:10.614Z,70.70
2023-07-29T19:16:20.520Z,70.60
2023-07-29T19:21:33.432Z,70.50
2023-07-29T19:26:37.541Z,70.20
2023-07-29T19:31:42.909Z,70.20
2023-07-29T19:36:47.861Z,70.20
2023-07-29T19:41:51.632Z,70.20
2023-07-29T19:46:55.766Z,70.00
2023-07-29T19:57:33.556Z,70.10
2023-07-29T20:02:57.532Z,70.20
2023-07-29T20:08:03.239Z,70.20
2023-07-29T20:13:35.681Z,70.30
2023-07-29T20:18:41.153Z,70.40
2023-07-29T20:23:49.688Z,70.60
2023-07-29T20:28:53.140Z,70.60
2023-07-29T20:33:56.534Z,70.80
2023-07-29T20:39:01.473Z,71.10
2023-07-29T20:44:07.166Z,71.20
2023-07-29T20:49:10.708Z,71.30
2023-07-29T20:54:16.269Z,71.60
2023-07-29T20:59:19.851Z,71.80
2023-07-29T21:04:23.282Z,71.90
2023-07-29T21:09:28.291Z,71.90
2023-07-29T21:14:31.728Z,72.80
2023-07-29T21:19:35.151Z,72.20
2023-07-29T21:24:39.953Z,72.30
2023-07-29T21:29:43.332Z,72.20
2023-07-29T21:34:46.754Z,72.20
2023-07-29T21:39:51.524Z,72.20
2023-07-29T21:44:55.009Z,72.40
2023-07-29T21:49:58.451Z,72.90
2023-07-29T21:55:03.454Z,73.80
2023-07-29T22:00:10.237Z,73.90
2023-07-29T22:05:13.652Z,74.20
2023-07-29T22:10:18.750Z,74.60
2023-07-29T22:15:22.160Z,74.80
2023-07-29T22:20:26.106Z,74.80
2023-07-29T22:25:31.008Z,75.00
2023-07-29T22:30:38.562Z,75.10
2023-07-29T22:35:41.970Z,75.90
2023-07-29T22:40:54.833Z,75.30
2023-07-29T22:46:02.511Z,75.30
2023-07-29T22:51:06.133Z,76.10
2023-07-29T22:56:10.951Z,75.50
2023-07-29T23:01:14.540Z,75.70
2023-07-29T23:06:18.005Z,75.50
2023-07-29T23:11:22.898Z,75.50
2023-07-29T23:16:26.397Z,75.40
2023-07-29T23:21:29.867Z,75.10
2023-07-29T23:26:35.010Z,75.40
2023-07-29T23:31:38.664Z,75.20
2023-07-29T23:36:42.255Z,75.20
2023-07-29T23:41:47.018Z,75.10
2023-07-29T23:46:50.672Z,75.00
2023-07-29T23:51:54.165Z,74.80
2023-07-29T23:56:58.995Z,75.00
